sensor_id;sensor_type;location;lat;lon;timestamp;P1;durP1;ratioP1;P2;durP2;ratioP2
34930;SDS011;21134;49.646;8.560;2023-05-15T00:02:12;0.63;;;0.63;;
34930;SDS011;21134;49.646;8.560;2023-05-15T00:04:39;1.20;;;1.10;;
34930;SDS011;21134;49.646;8.560;2023-05-15T00:07:05;3.43;;;1.33;;
34930;SDS011;21134;49.646;8.560;2023-05-15T00:09:32;40.10;;;1.77;;
34930;SDS011;21134;49.646;8.560;2023-05-15T00:12:00;2.20;;;1.30;;
34930;SDS011;21134;49.646;8.560;2023-05-15T00:14:26;1.90;;;1.00;;
34930;SDS011;21134;49.646;8.560;2023-05-15T00:16:53;1.97;;;1.57;;
34930;SDS011;21134;49.646;8.560;2023-05-15T00:19:19;1.20;;;1.10;;
34930;SDS011;21134;49.646;8.560;2023-05-15T00:21:46;1.57;;;1.40;;
34930;SDS011;21134;49.646;8.560;2023-05-15T00:24:12;0.30;;;0.30;;
34930;SDS011;21134;49.646;8.560;2023-05-15T00:26:39;4.70;;;1.57;;
34930;SDS011;21134;49.646;8.560;2023-05-15T00:29:07;1.33;;;1.23;;
34930;SDS011;21134;49.646;8.560;2023-05-15T00:31:33;1.97;;;1.70;;
34930;SDS011;21134;49.646;8.560;2023-05-15T00:33:59;3.37;;;1.20;;
34930;SDS011;21134;49.646;8.560;2023-05-15T00:36:26;0.97;;;0.90;;
34930;SDS011;21134;49.646;8.560;2023-05-15T00:38:52;0.93;;;0.93;;
34930;SDS011;21134;49.646;8.560;2023-05-15T00:41:19;0.97;;;0.93;;
34930;SDS011;21134;49.646;8.560;2023-05-15T00:43:48;0.90;;;0.80;;
34930;SDS011;21134;49.646;8.560;2023-05-15T00:46:17;1.07;;;0.90;;
34930;SDS011;21134;49.646;8.560;2023-05-15T00:48:45;1.67;;;0.80;;
34930;SDS011;21134;49.646;8.560;2023-05-15T00:51:13;1.97;;;1.20;;
34930;SDS011;21134;49.646;8.560;2023-05-15T00:53:40;0.83;;;0.83;;
34930;SDS011;21134;49.646;8.560;2023-05-15T00:56:08;1.17;;;1.00;;
34930;SDS011;21134;49.646;8.560;2023-05-15T00:58:36;7.77;;;1.10;;
34930;SDS011;21134;49.646;8.560;2023-05-15T01:01:03;1.43;;;0.97;;
34930;SDS011;21134;49.646;8.560;2023-05-15T01:03:32;1.03;;;0.80;;
34930;SDS011;21134;49.646;8.560;2023-05-15T01:05:58;1.07;;;1.00;;
34930;SDS011;21134;49.646;8.560;2023-05-15T01:08:26;2.23;;;1.33;;
34930;SDS011;21134;49.646;8.560;2023-05-15T01:10:58;1.30;;;0.70;;
34930;SDS011;21134;49.646;8.560;2023-05-15T01:13:27;1.60;;;0.60;;
34930;SDS011;21134;49.646;8.560;2023-05-15T01:15:54;2.50;;;1.37;;
34930;SDS011;21134;49.646;8.560;2023-05-15T01:18:21;1.70;;;0.87;;
34930;SDS011;21134;49.646;8.560;2023-05-15T01:20:56;1.27;;;1.07;;
34930;SDS011;21134;49.646;8.560;2023-05-15T01:23:37;1.47;;;0.97;;
34930;SDS011;21134;49.646;8.560;2023-05-15T01:26:25;2.70;;;1.27;;
34930;SDS011;21134;49.646;8.560;2023-05-15T01:29:18;2.00;;;1.00;;
34930;SDS011;21134;49.646;8.560;2023-05-15T01:31:49;0.97;;;0.50;;
34930;SDS011;21134;49.646;8.560;2023-05-15T01:34:19;2.63;;;1.10;;
34930;SDS011;21134;49.646;8.560;2023-05-15T01:36:55;2.83;;;0.80;;
34930;SDS011;21134;49.646;8.560;2023-05-15T01:39:26;1.30;;;0.80;;
34930;SDS011;21134;49.646;8.560;2023-05-15T01:41:56;1.47;;;1.33;;
34930;SDS011;21134;49.646;8.560;2023-05-15T01:44:29;1.90;;;1.23;;
34930;SDS011;21134;49.646;8.560;2023-05-15T01:46:58;4.17;;;0.97;;
34930;SDS011;21134;49.646;8.560;2023-05-15T01:49:26;0.73;;;0.73;;
34930;SDS011;21134;49.646;8.560;2023-05-15T01:51:54;0.90;;;0.90;;
34930;SDS011;21134;49.646;8.560;2023-05-15T01:54:24;1.07;;;1.07;;
34930;SDS011;21134;49.646;8.560;2023-05-15T01:56:53;1.10;;;1.00;;
34930;SDS011;21134;49.646;8.560;2023-05-15T01:59:22;2.43;;;0.93;;
34930;SDS011;21134;49.646;8.560;2023-05-15T02:01:51;5.57;;;1.93;;
34930;SDS011;21134;49.646;8.560;2023-05-15T02:04:18;9.63;;;1.50;;
34930;SDS011;21134;49.646;8.560;2023-05-15T02:06:46;1.20;;;0.67;;
34930;SDS011;21134;49.646;8.560;2023-05-15T02:09:14;0.50;;;0.47;;
34930;SDS011;21134;49.646;8.560;2023-05-15T02:11:41;2.70;;;1.30;;
34930;SDS011;21134;49.646;8.560;2023-05-15T02:14:08;4.23;;;1.33;;
34930;SDS011;21134;49.646;8.560;2023-05-15T02:16:37;2.13;;;1.43;;
34930;SDS011;21134;49.646;8.560;2023-05-15T02:19:05;2.27;;;1.13;;
34930;SDS011;21134;49.646;8.560;2023-05-15T02:21:33;2.00;;;0.83;;
34930;SDS011;21134;49.646;8.560;2023-05-15T02:24:00;1.13;;;0.90;;
34930;SDS011;21134;49.646;8.560;2023-05-15T02:26:29;2.03;;;1.03;;
34930;SDS011;21134;49.646;8.560;2023-05-15T02:29:05;1.87;;;1.60;;
34930;SDS011;21134;49.646;8.560;2023-05-15T02:31:46;1.30;;;1.20;;
34930;SDS011;21134;49.646;8.560;2023-05-15T02:34:24;2.03;;;1.20;;
34930;SDS011;21134;49.646;8.560;2023-05-15T02:36:57;1.60;;;1.30;;
34930;SDS011;21134;49.646;8.560;2023-05-15T02:39:26;0.93;;;0.80;;
34930;SDS011;21134;49.646;8.560;2023-05-15T02:41:54;1.70;;;0.90;;
34930;SDS011;21134;49.646;8.560;2023-05-15T02:44:21;1.07;;;1.03;;
34930;SDS011;21134;49.646;8.560;2023-05-15T02:46:49;1.60;;;1.23;;
34930;SDS011;21134;49.646;8.560;2023-05-15T02:49:18;4.10;;;0.70;;
34930;SDS011;21134;49.646;8.560;2023-05-15T02:51:48;1.87;;;1.53;;
34930;SDS011;21134;49.646;8.560;2023-05-15T02:54:15;1.07;;;0.97;;
34930;SDS011;21134;49.646;8.560;2023-05-15T02:56:43;1.50;;;0.87;;
34930;SDS011;21134;49.646;8.560;2023-05-15T02:59:09;2.80;;;1.60;;
34930;SDS011;21134;49.646;8.560;2023-05-15T03:01:37;1.10;;;1.07;;
34930;SDS011;21134;49.646;8.560;2023-05-15T03:04:03;2.67;;;1.53;;
34930;SDS011;21134;49.646;8.560;2023-05-15T03:06:30;1.27;;;1.10;;
34930;SDS011;21134;49.646;8.560;2023-05-15T03:08:58;1.43;;;1.03;;
34930;SDS011;21134;49.646;8.560;2023-05-15T03:11:24;2.43;;;0.90;;
34930;SDS011;21134;49.646;8.560;2023-05-15T03:13:51;2.33;;;1.27;;
34930;SDS011;21134;49.646;8.560;2023-05-15T03:16:17;0.83;;;0.83;;
34930;SDS011;21134;49.646;8.560;2023-05-15T03:18:44;5.53;;;1.27;;
34930;SDS011;21134;49.646;8.560;2023-05-15T03:21:10;5.90;;;1.90;;
34930;SDS011;21134;49.646;8.560;2023-05-15T03:23:37;3.10;;;0.83;;
34930;SDS011;21134;49.646;8.560;2023-05-15T03:26:05;1.77;;;0.80;;
34930;SDS011;21134;49.646;8.560;2023-05-15T03:28:31;1.00;;;0.73;;
34930;SDS011;21134;49.646;8.560;2023-05-15T03:30:58;2.50;;;1.30;;
34930;SDS011;21134;49.646;8.560;2023-05-15T03:33:24;1.53;;;1.00;;
34930;SDS011;21134;49.646;8.560;2023-05-15T03:35:51;3.17;;;1.60;;
34930;SDS011;21134;49.646;8.560;2023-05-15T03:38:18;4.17;;;1.30;;
34930;SDS011;21134;49.646;8.560;2023-05-15T03:40:44;1.73;;;1.00;;
34930;SDS011;21134;49.646;8.560;2023-05-15T03:43:12;2.90;;;1.27;;
34930;SDS011;21134;49.646;8.560;2023-05-15T03:45:39;2.47;;;1.07;;
34930;SDS011;21134;49.646;8.560;2023-05-15T03:48:05;1.83;;;1.27;;
34930;SDS011;21134;49.646;8.560;2023-05-15T03:50:32;1.27;;;1.10;;
34930;SDS011;21134;49.646;8.560;2023-05-15T03:52:58;1.43;;;0.93;;
34930;SDS011;21134;49.646;8.560;2023-05-15T03:55:25;1.47;;;0.90;;
34930;SDS011;21134;49.646;8.560;2023-05-15T03:57:52;1.30;;;0.90;;
34930;SDS011;21134;49.646;8.560;2023-05-15T04:00:20;2.50;;;1.27;;
34930;SDS011;21134;49.646;8.560;2023-05-15T04:02:46;1.40;;;1.30;;
34930;SDS011;21134;49.646;8.560;2023-05-15T04:05:13;3.13;;;1.40;;
34930;SDS011;21134;49.646;8.560;2023-05-15T04:07:40;1.83;;;1.10;;
34930;SDS011;21134;49.646;8.560;2023-05-15T04:10:07;1.43;;;0.70;;
34930;SDS011;21134;49.646;8.560;2023-05-15T04:12:33;0.73;;;0.40;;
34930;SDS011;21134;49.646;8.560;2023-05-15T04:15:12;1.90;;;1.70;;
34930;SDS011;21134;49.646;8.560;2023-05-15T04:17:40;2.07;;;0.90;;
34930;SDS011;21134;49.646;8.560;2023-05-15T04:20:07;0.67;;;0.67;;
34930;SDS011;21134;49.646;8.560;2023-05-15T04:22:35;0.57;;;0.57;;
34930;SDS011;21134;49.646;8.560;2023-05-15T04:25:01;0.80;;;0.80;;
34930;SDS011;21134;49.646;8.560;2023-05-15T04:27:28;4.03;;;1.40;;
34930;SDS011;21134;49.646;8.560;2023-05-15T04:29:55;1.07;;;0.90;;
34930;SDS011;21134;49.646;8.560;2023-05-15T04:32:21;1.53;;;1.13;;
34930;SDS011;21134;49.646;8.560;2023-05-15T04:34:49;1.27;;;1.17;;
34930;SDS011;21134;49.646;8.560;2023-05-15T04:37:16;4.53;;;1.63;;
34930;SDS011;21134;49.646;8.560;2023-05-15T04:39:42;0.93;;;0.90;;
34930;SDS011;21134;49.646;8.560;2023-05-15T04:42:09;0.67;;;0.63;;
34930;SDS011;21134;49.646;8.560;2023-05-15T04:44:35;1.33;;;1.23;;
34930;SDS011;21134;49.646;8.560;2023-05-15T04:47:02;1.90;;;1.70;;
34930;SDS011;21134;49.646;8.560;2023-05-15T04:49:29;1.87;;;1.33;;
34930;SDS011;21134;49.646;8.560;2023-05-15T04:51:56;1.13;;;0.87;;
34930;SDS011;21134;49.646;8.560;2023-05-15T04:54:23;1.83;;;1.10;;
34930;SDS011;21134;49.646;8.560;2023-05-15T04:56:49;2.67;;;1.13;;
34930;SDS011;21134;49.646;8.560;2023-05-15T04:59:16;1.80;;;1.47;;
34930;SDS011;21134;49.646;8.560;2023-05-15T05:01:42;1.57;;;1.27;;
34930;SDS011;21134;49.646;8.560;2023-05-15T05:04:09;1.40;;;1.20;;
34930;SDS011;21134;49.646;8.560;2023-05-15T05:06:36;1.67;;;1.40;;
34930;SDS011;21134;49.646;8.560;2023-05-15T05:09:04;1.73;;;1.60;;
34930;SDS011;21134;49.646;8.560;2023-05-15T05:11:30;2.53;;;1.57;;
34930;SDS011;21134;49.646;8.560;2023-05-15T05:13:57;2.90;;;1.70;;
34930;SDS011;21134;49.646;8.560;2023-05-15T05:16:23;3.93;;;1.30;;
34930;SDS011;21134;49.646;8.560;2023-05-15T05:18:50;4.23;;;1.80;;
34930;SDS011;21134;49.646;8.560;2023-05-15T05:21:16;2.23;;;1.27;;
34930;SDS011;21134;49.646;8.560;2023-05-15T05:23:43;2.23;;;1.40;;
34930;SDS011;21134;49.646;8.560;2023-05-15T05:26:11;1.47;;;1.27;;
34930;SDS011;21134;49.646;8.560;2023-05-15T05:28:37;0.70;;;0.70;;
34930;SDS011;21134;49.646;8.560;2023-05-15T05:31:04;0.90;;;0.80;;
34930;SDS011;21134;49.646;8.560;2023-05-15T05:33:30;3.47;;;2.13;;
34930;SDS011;21134;49.646;8.560;2023-05-15T05:35:57;2.27;;;1.07;;
34930;SDS011;21134;49.646;8.560;2023-05-15T05:38:23;2.67;;;1.30;;
34930;SDS011;21134;49.646;8.560;2023-05-15T05:40:51;2.70;;;1.63;;
34930;SDS011;21134;49.646;8.560;2023-05-15T05:43:19;1.80;;;1.30;;
34930;SDS011;21134;49.646;8.560;2023-05-15T05:45:46;1.20;;;1.10;;
34930;SDS011;21134;49.646;8.560;2023-05-15T05:48:12;2.43;;;1.37;;
34930;SDS011;21134;49.646;8.560;2023-05-15T05:50:39;1.33;;;1.00;;
34930;SDS011;21134;49.646;8.560;2023-05-15T05:53:06;4.43;;;2.07;;
34930;SDS011;21134;49.646;8.560;2023-05-15T05:55:32;4.00;;;1.77;;
34930;SDS011;21134;49.646;8.560;2023-05-15T05:57:59;1.90;;;1.40;;
34930;SDS011;21134;49.646;8.560;2023-05-15T06:00:27;1.80;;;1.00;;
34930;SDS011;21134;49.646;8.560;2023-05-15T06:02:55;1.73;;;1.07;;
34930;SDS011;21134;49.646;8.560;2023-05-15T06:05:23;4.37;;;1.37;;
34930;SDS011;21134;49.646;8.560;2023-05-15T06:07:49;1.27;;;1.03;;
34930;SDS011;21134;49.646;8.560;2023-05-15T06:10:16;4.87;;;1.23;;
34930;SDS011;21134;49.646;8.560;2023-05-15T06:12:43;1.50;;;1.13;;
34930;SDS011;21134;49.646;8.560;2023-05-15T06:15:10;3.73;;;1.93;;
34930;SDS011;21134;49.646;8.560;2023-05-15T06:17:38;2.23;;;1.60;;
34930;SDS011;21134;49.646;8.560;2023-05-15T06:20:05;4.13;;;1.80;;
34930;SDS011;21134;49.646;8.560;2023-05-15T06:22:34;3.33;;;1.33;;
34930;SDS011;21134;49.646;8.560;2023-05-15T06:25:01;3.07;;;1.47;;
34930;SDS011;21134;49.646;8.560;2023-05-15T06:27:28;9.27;;;1.90;;
34930;SDS011;21134;49.646;8.560;2023-05-15T06:29:55;2.30;;;2.10;;
34930;SDS011;21134;49.646;8.560;2023-05-15T06:32:21;2.87;;;1.73;;
34930;SDS011;21134;49.646;8.560;2023-05-15T06:34:49;2.17;;;1.47;;
34930;SDS011;21134;49.646;8.560;2023-05-15T06:37:16;1.77;;;1.60;;
34930;SDS011;21134;49.646;8.560;2023-05-15T06:39:42;1.87;;;1.27;;
34930;SDS011;21134;49.646;8.560;2023-05-15T06:42:09;1.87;;;1.47;;
34930;SDS011;21134;49.646;8.560;2023-05-15T06:44:35;0.90;;;0.90;;
34930;SDS011;21134;49.646;8.560;2023-05-15T06:47:02;10.17;;;1.97;;
34930;SDS011;21134;49.646;8.560;2023-05-15T06:49:28;2.20;;;1.33;;
34930;SDS011;21134;49.646;8.560;2023-05-15T06:51:56;2.30;;;1.20;;
34930;SDS011;21134;49.646;8.560;2023-05-15T06:54:23;2.20;;;1.43;;
34930;SDS011;21134;49.646;8.560;2023-05-15T06:56:49;2.53;;;1.60;;
34930;SDS011;21134;49.646;8.560;2023-05-15T06:59:16;1.90;;;1.37;;
34930;SDS011;21134;49.646;8.560;2023-05-15T07:01:42;1.33;;;1.20;;
34930;SDS011;21134;49.646;8.560;2023-05-15T07:04:09;1.13;;;1.03;;
34930;SDS011;21134;49.646;8.560;2023-05-15T07:06:35;1.30;;;1.13;;
34930;SDS011;21134;49.646;8.560;2023-05-15T07:09:03;2.00;;;1.10;;
34930;SDS011;21134;49.646;8.560;2023-05-15T07:11:30;1.13;;;1.07;;
34930;SDS011;21134;49.646;8.560;2023-05-15T07:14:01;2.05;;;1.30;;
34930;SDS011;21134;49.646;8.560;2023-05-15T07:16:27;13.73;;;1.67;;
34930;SDS011;21134;49.646;8.560;2023-05-15T07:18:54;1.83;;;1.40;;
34930;SDS011;21134;49.646;8.560;2023-05-15T07:21:20;1.30;;;1.00;;
34930;SDS011;21134;49.646;8.560;2023-05-15T07:23:47;1.63;;;1.33;;
34930;SDS011;21134;49.646;8.560;2023-05-15T07:26:15;1.27;;;0.95;;
34930;SDS011;21134;49.646;8.560;2023-05-15T07:28:41;1.50;;;1.02;;
34930;SDS011;21134;49.646;8.560;2023-05-15T07:31:08;5.13;;;1.30;;
34930;SDS011;21134;49.646;8.560;2023-05-15T07:33:34;3.30;;;1.77;;
34930;SDS011;21134;49.646;8.560;2023-05-15T07:36:01;1.23;;;1.13;;
34930;SDS011;21134;49.646;8.560;2023-05-15T07:38:27;2.35;;;1.65;;
34930;SDS011;21134;49.646;8.560;2023-05-15T07:40:54;1.92;;;1.67;;
34930;SDS011;21134;49.646;8.560;2023-05-15T07:43:22;11.70;;;2.72;;
34930;SDS011;21134;49.646;8.560;2023-05-15T07:45:48;4.05;;;1.90;;
34930;SDS011;21134;49.646;8.560;2023-05-15T07:48:15;4.27;;;1.63;;
34930;SDS011;21134;49.646;8.560;2023-05-15T07:50:43;3.67;;;2.08;;
34930;SDS011;21134;49.646;8.560;2023-05-15T07:53:11;1.55;;;1.33;;
34930;SDS011;21134;49.646;8.560;2023-05-15T07:55:37;4.05;;;2.10;;
34930;SDS011;21134;49.646;8.560;2023-05-15T07:58:04;4.00;;;2.15;;
34930;SDS011;21134;49.646;8.560;2023-05-15T08:00:33;4.05;;;2.45;;
34930;SDS011;21134;49.646;8.560;2023-05-15T08:02:59;3.38;;;2.20;;
34930;SDS011;21134;49.646;8.560;2023-05-15T08:05:26;2.25;;;1.80;;
34930;SDS011;21134;49.646;8.560;2023-05-15T08:07:54;3.45;;;2.20;;
34930;SDS011;21134;49.646;8.560;2023-05-15T08:10:20;1.80;;;1.70;;
34930;SDS011;21134;49.646;8.560;2023-05-15T08:12:47;5.55;;;2.10;;
34930;SDS011;21134;49.646;8.560;2023-05-15T08:15:14;3.03;;;1.60;;
34930;SDS011;21134;49.646;8.560;2023-05-15T08:17:42;1.88;;;1.73;;
34930;SDS011;21134;49.646;8.560;2023-05-15T08:20:09;9.65;;;1.88;;
34930;SDS011;21134;49.646;8.560;2023-05-15T08:22:36;2.17;;;1.90;;
34930;SDS011;21134;49.646;8.560;2023-05-15T08:25:03;3.55;;;1.67;;
34930;SDS011;21134;49.646;8.560;2023-05-15T08:27:31;2.80;;;2.40;;
34930;SDS011;21134;49.646;8.560;2023-05-15T08:29:57;4.15;;;2.72;;
34930;SDS011;21134;49.646;8.560;2023-05-15T08:32:24;8.75;;;2.90;;
34930;SDS011;21134;49.646;8.560;2023-05-15T08:34:52;5.72;;;2.97;;
34930;SDS011;21134;49.646;8.560;2023-05-15T08:37:19;5.10;;;2.90;;
34930;SDS011;21134;49.646;8.560;2023-05-15T08:39:45;7.75;;;3.63;;
34930;SDS011;21134;49.646;8.560;2023-05-15T08:42:13;6.05;;;2.67;;
34930;SDS011;21134;49.646;8.560;2023-05-15T08:44:44;3.25;;;2.45;;
34930;SDS011;21134;49.646;8.560;2023-05-15T08:47:12;6.50;;;3.00;;
34930;SDS011;21134;49.646;8.560;2023-05-15T08:49:41;4.57;;;3.33;;
34930;SDS011;21134;49.646;8.560;2023-05-15T08:52:14;6.70;;;3.80;;
34930;SDS011;21134;49.646;8.560;2023-05-15T08:54:41;5.32;;;3.13;;
34930;SDS011;21134;49.646;8.560;2023-05-15T08:57:08;3.78;;;2.42;;
34930;SDS011;21134;49.646;8.560;2023-05-15T08:59:35;8.07;;;3.55;;
34930;SDS011;21134;49.646;8.560;2023-05-15T09:02:02;5.75;;;3.28;;
34930;SDS011;21134;49.646;8.560;2023-05-15T09:04:29;6.82;;;3.85;;
34930;SDS011;21134;49.646;8.560;2023-05-15T09:06:55;6.18;;;3.22;;
34930;SDS011;21134;49.646;8.560;2023-05-15T09:09:26;8.23;;;4.30;;
34930;SDS011;21134;49.646;8.560;2023-05-15T09:11:53;5.45;;;3.30;;
34930;SDS011;21134;49.646;8.560;2023-05-15T09:14:20;14.05;;;4.13;;
34930;SDS011;21134;49.646;8.560;2023-05-15T09:16:47;8.23;;;4.72;;
34930;SDS011;21134;49.646;8.560;2023-05-15T09:19:17;10.00;;;4.22;;
34930;SDS011;21134;49.646;8.560;2023-05-15T09:21:44;10.30;;;5.53;;
34930;SDS011;21134;49.646;8.560;2023-05-15T09:24:14;8.88;;;4.40;;
34930;SDS011;21134;49.646;8.560;2023-05-15T09:26:44;8.05;;;4.28;;
34930;SDS011;21134;49.646;8.560;2023-05-15T09:29:14;13.23;;;5.63;;
34930;SDS011;21134;49.646;8.560;2023-05-15T09:31:42;9.38;;;4.65;;
34930;SDS011;21134;49.646;8.560;2023-05-15T09:34:08;12.15;;;4.80;;
34930;SDS011;21134;49.646;8.560;2023-05-15T09:36:35;13.52;;;5.70;;
34930;SDS011;21134;49.646;8.560;2023-05-15T09:39:07;10.50;;;5.45;;
34930;SDS011;21134;49.646;8.560;2023-05-15T09:41:34;11.10;;;4.97;;
34930;SDS011;21134;49.646;8.560;2023-05-15T09:44:07;10.68;;;4.75;;
34930;SDS011;21134;49.646;8.560;2023-05-15T09:46:43;10.98;;;4.72;;
34930;SDS011;21134;49.646;8.560;2023-05-15T09:49:10;16.63;;;4.95;;
34930;SDS011;21134;49.646;8.560;2023-05-15T09:51:37;6.57;;;2.92;;
34930;SDS011;21134;49.646;8.560;2023-05-15T09:54:04;7.95;;;3.78;;
34930;SDS011;21134;49.646;8.560;2023-05-15T09:56:31;6.80;;;3.15;;
34930;SDS011;21134;49.646;8.560;2023-05-15T09:58:58;8.35;;;3.70;;
34930;SDS011;21134;49.646;8.560;2023-05-15T10:01:26;6.65;;;3.17;;
34930;SDS011;21134;49.646;8.560;2023-05-15T10:03:55;7.97;;;4.55;;
34930;SDS011;21134;49.646;8.560;2023-05-15T10:06:23;17.67;;;4.70;;
34930;SDS011;21134;49.646;8.560;2023-05-15T10:08:50;7.35;;;3.70;;
34930;SDS011;21134;49.646;8.560;2023-05-15T10:11:17;7.03;;;3.72;;
34930;SDS011;21134;49.646;8.560;2023-05-15T10:13:44;5.53;;;3.30;;
34930;SDS011;21134;49.646;8.560;2023-05-15T10:16:12;5.07;;;3.45;;
34930;SDS011;21134;49.646;8.560;2023-05-15T10:18:40;6.38;;;3.47;;
34930;SDS011;21134;49.646;8.560;2023-05-15T10:21:09;7.05;;;3.78;;
34930;SDS011;21134;49.646;8.560;2023-05-15T10:23:37;7.82;;;3.58;;
34930;SDS011;21134;49.646;8.560;2023-05-15T10:26:07;4.30;;;2.65;;
34930;SDS011;21134;49.646;8.560;2023-05-15T10:28:39;6.85;;;3.35;;
34930;SDS011;21134;49.646;8.560;2023-05-15T10:31:06;5.88;;;3.08;;
34930;SDS011;21134;49.646;8.560;2023-05-15T10:33:34;9.07;;;3.45;;
34930;SDS011;21134;49.646;8.560;2023-05-15T10:36:04;7.75;;;3.50;;
34930;SDS011;21134;49.646;8.560;2023-05-15T10:38:32;5.68;;;3.28;;
34930;SDS011;21134;49.646;8.560;2023-05-15T10:41:00;7.25;;;3.85;;
34930;SDS011;21134;49.646;8.560;2023-05-15T10:43:28;9.55;;;4.05;;
34930;SDS011;21134;49.646;8.560;2023-05-15T10:45:55;9.60;;;4.20;;
34930;SDS011;21134;49.646;8.560;2023-05-15T10:48:23;6.57;;;3.97;;
34930;SDS011;21134;49.646;8.560;2023-05-15T10:50:50;7.18;;;3.30;;
34930;SDS011;21134;49.646;8.560;2023-05-15T10:53:19;7.00;;;3.38;;
34930;SDS011;21134;49.646;8.560;2023-05-15T10:55:47;5.50;;;3.00;;
34930;SDS011;21134;49.646;8.560;2023-05-15T10:58:13;5.65;;;2.90;;
34930;SDS011;21134;49.646;8.560;2023-05-15T11:00:41;6.00;;;2.92;;
34930;SDS011;21134;49.646;8.560;2023-05-15T11:03:08;7.75;;;3.28;;
34930;SDS011;21134;49.646;8.560;2023-05-15T11:06:05;5.53;;;2.72;;
34930;SDS011;21134;49.646;8.560;2023-05-15T11:08:34;7.45;;;3.03;;
34930;SDS011;21134;49.646;8.560;2023-05-15T11:11:01;6.30;;;3.90;;
34930;SDS011;21134;49.646;8.560;2023-05-15T11:13:34;4.35;;;2.65;;
34930;SDS011;21134;49.646;8.560;2023-05-15T11:16:56;4.18;;;2.38;;
34930;SDS011;21134;49.646;8.560;2023-05-15T11:19:24;6.72;;;2.95;;
34930;SDS011;21134;49.646;8.560;2023-05-15T11:21:57;10.80;;;3.35;;
34930;SDS011;21134;49.646;8.560;2023-05-15T11:24:27;10.38;;;4.78;;
34930;SDS011;21134;49.646;8.560;2023-05-15T11:26:58;13.93;;;3.97;;
34930;SDS011;21134;49.646;8.560;2023-05-15T11:29:25;12.65;;;4.47;;
34930;SDS011;21134;49.646;8.560;2023-05-15T11:31:51;7.30;;;3.13;;
34930;SDS011;21134;49.646;8.560;2023-05-15T11:34:27;8.70;;;3.72;;
34930;SDS011;21134;49.646;8.560;2023-05-15T11:36:55;13.30;;;3.47;;
34930;SDS011;21134;49.646;8.560;2023-05-15T11:39:24;7.32;;;4.25;;
34930;SDS011;21134;49.646;8.560;2023-05-15T11:41:52;7.63;;;4.28;;
34930;SDS011;21134;49.646;8.560;2023-05-15T11:44:19;6.00;;;3.83;;
34930;SDS011;21134;49.646;8.560;2023-05-15T11:46:47;6.95;;;3.80;;
34930;SDS011;21134;49.646;8.560;2023-05-15T11:49:13;7.60;;;4.40;;
34930;SDS011;21134;49.646;8.560;2023-05-15T11:51:40;6.65;;;3.70;;
34930;SDS011;21134;49.646;8.560;2023-05-15T11:54:09;7.55;;;4.25;;
34930;SDS011;21134;49.646;8.560;2023-05-15T11:56:40;7.80;;;4.25;;
34930;SDS011;21134;49.646;8.560;2023-05-15T11:59:11;4.65;;;3.30;;
34930;SDS011;21134;49.646;8.560;2023-05-15T12:01:38;6.70;;;3.65;;
34930;SDS011;21134;49.646;8.560;2023-05-15T12:04:10;6.03;;;3.78;;
34930;SDS011;21134;49.646;8.560;2023-05-15T12:06:38;10.05;;;3.72;;
34930;SDS011;21134;49.646;8.560;2023-05-15T12:09:04;6.18;;;3.40;;
34930;SDS011;21134;49.646;8.560;2023-05-15T12:11:31;5.82;;;2.83;;
34930;SDS011;21134;49.646;8.560;2023-05-15T12:13:58;5.72;;;2.95;;
34930;SDS011;21134;49.646;8.560;2023-05-15T12:16:26;5.90;;;3.90;;
34930;SDS011;21134;49.646;8.560;2023-05-15T12:18:55;11.98;;;3.13;;
34930;SDS011;21134;49.646;8.560;2023-05-15T12:21:22;5.90;;;2.92;;
34930;SDS011;21134;49.646;8.560;2023-05-15T12:23:49;4.85;;;3.20;;
34930;SDS011;21134;49.646;8.560;2023-05-15T12:26:17;5.30;;;2.58;;
34930;SDS011;21134;49.646;8.560;2023-05-15T12:28:45;4.10;;;1.90;;
34930;SDS011;21134;49.646;8.560;2023-05-15T12:31:12;2.88;;;2.03;;
34930;SDS011;21134;49.646;8.560;2023-05-15T12:33:40;1.80;;;1.65;;
34930;SDS011;21134;49.646;8.560;2023-05-15T12:36:07;2.17;;;1.88;;
34930;SDS011;21134;49.646;8.560;2023-05-15T12:38:34;6.20;;;2.92;;
34930;SDS011;21134;49.646;8.560;2023-05-15T12:41:01;4.20;;;2.67;;
34930;SDS011;21134;49.646;8.560;2023-05-15T12:43:29;3.33;;;2.47;;
34930;SDS011;21134;49.646;8.560;2023-05-15T12:45:56;10.50;;;3.00;;
34930;SDS011;21134;49.646;8.560;2023-05-15T12:48:27;3.13;;;2.55;;
34930;SDS011;21134;49.646;8.560;2023-05-15T12:50:56;5.25;;;2.80;;
34930;SDS011;21134;49.646;8.560;2023-05-15T12:53:30;5.07;;;2.95;;
34930;SDS011;21134;49.646;8.560;2023-05-15T12:55:58;7.70;;;3.17;;
34930;SDS011;21134;49.646;8.560;2023-05-15T12:58:25;6.80;;;4.05;;
34930;SDS011;21134;49.646;8.560;2023-05-15T13:00:51;6.75;;;3.38;;
34930;SDS011;21134;49.646;8.560;2023-05-15T13:03:19;8.95;;;3.13;;
34930;SDS011;21134;49.646;8.560;2023-05-15T13:05:46;4.50;;;2.92;;
34930;SDS011;21134;49.646;8.560;2023-05-15T13:08:15;3.92;;;2.50;;
34930;SDS011;21134;49.646;8.560;2023-05-15T13:10:43;5.07;;;2.90;;
34930;SDS011;21134;49.646;8.560;2023-05-15T13:13:11;4.22;;;2.50;;
34930;SDS011;21134;49.646;8.560;2023-05-15T13:15:38;5.03;;;2.65;;
34930;SDS011;21134;49.646;8.560;2023-05-15T13:18:07;6.10;;;3.30;;
34930;SDS011;21134;49.646;8.560;2023-05-15T13:20:36;5.10;;;2.97;;
34930;SDS011;21134;49.646;8.560;2023-05-15T13:23:03;5.93;;;3.00;;
34930;SDS011;21134;49.646;8.560;2023-05-15T13:25:32;6.78;;;3.22;;
34930;SDS011;21134;49.646;8.560;2023-05-15T13:27:59;5.28;;;2.75;;
34930;SDS011;21134;49.646;8.560;2023-05-15T13:30:27;7.75;;;2.75;;
34930;SDS011;21134;49.646;8.560;2023-05-15T13:32:54;5.93;;;2.95;;
34930;SDS011;21134;49.646;8.560;2023-05-15T13:35:21;9.52;;;3.15;;
34930;SDS011;21134;49.646;8.560;2023-05-15T13:37:48;6.50;;;3.38;;
34930;SDS011;21134;49.646;8.560;2023-05-15T13:40:15;5.07;;;2.45;;
34930;SDS011;21134;49.646;8.560;2023-05-15T13:42:43;5.63;;;3.10;;
34930;SDS011;21134;49.646;8.560;2023-05-15T13:45:10;4.63;;;2.90;;
34930;SDS011;21134;49.646;8.560;2023-05-15T13:47:38;7.93;;;3.28;;
34930;SDS011;21134;49.646;8.560;2023-05-15T13:50:05;8.23;;;2.83;;
34930;SDS011;21134;49.646;8.560;2023-05-15T13:52:33;3.15;;;2.17;;
34930;SDS011;21134;49.646;8.560;2023-05-15T13:55:00;6.25;;;2.33;;
34930;SDS011;21134;49.646;8.560;2023-05-15T13:57:28;4.20;;;2.58;;
34930;SDS011;21134;49.646;8.560;2023-05-15T13:59:56;13.45;;;2.97;;
34930;SDS011;21134;49.646;8.560;2023-05-15T14:02:23;5.75;;;2.70;;
34930;SDS011;21134;49.646;8.560;2023-05-15T14:04:50;5.88;;;2.65;;
34930;SDS011;21134;49.646;8.560;2023-05-15T14:07:17;4.55;;;2.60;;
34930;SDS011;21134;49.646;8.560;2023-05-15T14:09:43;3.97;;;2.65;;
34930;SDS011;21134;49.646;8.560;2023-05-15T14:12:10;3.10;;;2.40;;
34930;SDS011;21134;49.646;8.560;2023-05-15T14:14:36;7.53;;;2.75;;
34930;SDS011;21134;49.646;8.560;2023-05-15T14:17:04;3.80;;;2.20;;
34930;SDS011;21134;49.646;8.560;2023-05-15T14:19:30;4.70;;;3.20;;
34930;SDS011;21134;49.646;8.560;2023-05-15T14:21:57;4.43;;;2.90;;
34930;SDS011;21134;49.646;8.560;2023-05-15T14:24:23;5.13;;;2.58;;
34930;SDS011;21134;49.646;8.560;2023-05-15T14:26:50;3.88;;;2.05;;
34930;SDS011;21134;49.646;8.560;2023-05-15T14:29:16;3.50;;;2.35;;
34930;SDS011;21134;49.646;8.560;2023-05-15T14:31:43;5.53;;;2.85;;
34930;SDS011;21134;49.646;8.560;2023-05-15T14:34:11;6.05;;;2.83;;
34930;SDS011;21134;49.646;8.560;2023-05-15T14:36:37;6.22;;;2.90;;
34930;SDS011;21134;49.646;8.560;2023-05-15T14:39:04;6.00;;;2.50;;
34930;SDS011;21134;49.646;8.560;2023-05-15T14:41:30;4.05;;;2.97;;
34930;SDS011;21134;49.646;8.560;2023-05-15T14:43:57;7.32;;;2.83;;
34930;SDS011;21134;49.646;8.560;2023-05-15T14:46:23;3.53;;;2.67;;
34930;SDS011;21134;49.646;8.560;2023-05-15T14:48:50;5.88;;;2.65;;
34930;SDS011;21134;49.646;8.560;2023-05-15T14:51:17;4.20;;;1.83;;
34930;SDS011;21134;49.646;8.560;2023-05-15T14:53:44;3.50;;;2.60;;